Dameron, Maryland
Current Conditions -  °F | °C
As of 12:53 AM on Thursday 29 Jan 2015 (Local Time) from KNUI Reporting Station
Clear Clear  
Wind Chill: 28°   Ceiling: Unl
Heat Index: 28°   Visibility: 10mi
Dew Point:   Wind: 0mph
Humidity: 39%   Direction: NA
Pressure: 30.33"   Gusts: NA
Location:  38.14°N, 76.35°W
Report Text: KNUI 290553Z AUTO 00000KT 10SM CLR M02/M14 A3033 RMK AO2 SLP268 T10221144 10006 21028 50003
Loading
Personal Weather Stations






























Interactive Weather Map New forecast layout! Learn more

10-Day Weather Forecast

Advertisements
Track Severe Weather on mobile